sensor_id;sensor_type;location;lat;lon;timestamp;temperature;humidity
26262;DHT22;13988;52.446;13.280;2022-12-18T00:01:41;-5.30;99.90
26262;DHT22;13988;52.446;13.280;2022-12-18T00:04:11;-5.30;99.90
26262;DHT22;13988;52.446;13.280;2022-12-18T00:06:38;-5.30;99.90
26262;DHT22;13988;52.446;13.280;2022-12-18T00:09:04;-5.40;99.90
26262;DHT22;13988;52.446;13.280;2022-12-18T00:11:30;-5.30;99.90
26262;DHT22;13988;52.446;13.280;2022-12-18T00:13:57;-5.30;99.90
26262;DHT22;13988;52.446;13.280;2022-12-18T00:16:25;-5.10;99.90
26262;DHT22;13988;52.446;13.280;2022-12-18T00:18:53;-5.20;99.90
26262;DHT22;13988;52.446;13.280;2022-12-18T00:21:20;-5.10;99.90
26262;DHT22;13988;52.446;13.280;2022-12-18T00:23:47;-5.10;99.90
26262;DHT22;13988;52.446;13.280;2022-12-18T00:26:15;-5.10;99.90
26262;DHT22;13988;52.446;13.280;2022-12-18T00:28:42;-5.20;99.90
26262;DHT22;13988;52.446;13.280;2022-12-18T00:31:10;-5.20;99.90
26262;DHT22;13988;52.446;13.280;2022-12-18T00:33:37;-5.20;99.90
26262;DHT22;13988;52.446;13.280;2022-12-18T00:36:11;-5.40;99.90
26262;DHT22;13988;52.446;13.280;2022-12-18T00:38:37;-5.50;99.90
26262;DHT22;13988;52.446;13.280;2022-12-18T00:41:04;-5.60;99.90
26262;DHT22;13988;52.446;13.280;2022-12-18T00:43:30;-5.60;99.90
26262;DHT22;13988;52.446;13.280;2022-12-18T00:45:59;-5.50;99.90
26262;DHT22;13988;52.446;13.280;2022-12-18T00:48:24;-5.60;99.90
26262;DHT22;13988;52.446;13.280;2022-12-18T00:50:50;-5.60;99.90
26262;DHT22;13988;52.446;13.280;2022-12-18T00:53:16;-5.50;99.90
26262;DHT22;13988;52.446;13.280;2022-12-18T00:55:43;-5.40;99.90
26262;DHT22;13988;52.446;13.280;2022-12-18T00:58:10;-5.30;99.90
26262;DHT22;13988;52.446;13.280;2022-12-18T01:00:36;-5.40;99.90
26262;DHT22;13988;52.446;13.280;2022-12-18T01:03:02;-5.30;99.90
26262;DHT22;13988;52.446;13.280;2022-12-18T01:05:27;-5.40;99.90
26262;DHT22;13988;52.446;13.280;2022-12-18T01:07:53;-5.40;99.90
26262;DHT22;13988;52.446;13.280;2022-12-18T01:10:20;-5.60;99.90
26262;DHT22;13988;52.446;13.280;2022-12-18T01:12:45;-5.70;99.90
26262;DHT22;13988;52.446;13.280;2022-12-18T01:15:12;-5.60;99.90
26262;DHT22;13988;52.446;13.280;2022-12-18T01:17:39;-5.70;99.90
26262;DHT22;13988;52.446;13.280;2022-12-18T01:20:05;-5.90;99.90
26262;DHT22;13988;52.446;13.280;2022-12-18T01:22:30;-5.80;99.90
26262;DHT22;13988;52.446;13.280;2022-12-18T01:24:56;-5.70;99.90
26262;DHT22;13988;52.446;13.280;2022-12-18T01:27:22;-5.70;99.90
26262;DHT22;13988;52.446;13.280;2022-12-18T01:29:47;-5.70;99.90
26262;DHT22;13988;52.446;13.280;2022-12-18T01:32:14;-5.60;99.90
26262;DHT22;13988;52.446;13.280;2022-12-18T01:34:39;-5.80;99.90
26262;DHT22;13988;52.446;13.280;2022-12-18T01:37:05;-5.60;99.90
26262;DHT22;13988;52.446;13.280;2022-12-18T01:39:31;-5.70;99.90
26262;DHT22;13988;52.446;13.280;2022-12-18T01:41:59;-5.80;99.90
26262;DHT22;13988;52.446;13.280;2022-12-18T01:49:56;-5.50;99.90
26262;DHT22;13988;52.446;13.280;2022-12-18T01:52:24;-5.60;99.90
26262;DHT22;13988;52.446;13.280;2022-12-18T01:54:52;-5.50;99.90
26262;DHT22;13988;52.446;13.280;2022-12-18T01:57:18;-5.60;99.90
26262;DHT22;13988;52.446;13.280;2022-12-18T01:59:45;-5.60;99.90
26262;DHT22;13988;52.446;13.280;2022-12-18T02:02:14;-5.40;99.90
26262;DHT22;13988;52.446;13.280;2022-12-18T02:04:41;-5.70;99.90
26262;DHT22;13988;52.446;13.280;2022-12-18T02:12:28;-5.50;99.90
26262;DHT22;13988;52.446;13.280;2022-12-18T02:15:18;-5.40;99.90
26262;DHT22;13988;52.446;13.280;2022-12-18T02:20:45;-5.50;99.90
26262;DHT22;13988;52.446;13.280;2022-12-18T02:26:22;-5.70;99.90
26262;DHT22;13988;52.446;13.280;2022-12-18T02:28:59;-5.60;99.90
26262;DHT22;13988;52.446;13.280;2022-12-18T02:31:32;-5.80;99.90
26262;DHT22;13988;52.446;13.280;2022-12-18T02:34:03;-6.00;99.90
26262;DHT22;13988;52.446;13.280;2022-12-18T02:36:31;-5.80;99.90
26262;DHT22;13988;52.446;13.280;2022-12-18T02:38:58;-5.60;99.90
26262;DHT22;13988;52.446;13.280;2022-12-18T02:41:25;-5.60;99.90
26262;DHT22;13988;52.446;13.280;2022-12-18T02:44:01;-5.60;99.90
26262;DHT22;13988;52.446;13.280;2022-12-18T02:49:24;-5.60;99.90
26262;DHT22;13988;52.446;13.280;2022-12-18T03:00:34;-5.60;99.90
26262;DHT22;13988;52.446;13.280;2022-12-18T03:03:19;-5.70;99.90
26262;DHT22;13988;52.446;13.280;2022-12-18T03:05:52;-5.60;99.90
26262;DHT22;13988;52.446;13.280;2022-12-18T03:08:27;-5.80;99.90
26262;DHT22;13988;52.446;13.280;2022-12-18T03:11:23;-5.80;99.90
26262;DHT22;13988;52.446;13.280;2022-12-18T03:14:10;-5.80;99.90
26262;DHT22;13988;52.446;13.280;2022-12-18T03:16:40;-5.80;99.90
26262;DHT22;13988;52.446;13.280;2022-12-18T03:19:19;-5.60;99.90
26262;DHT22;13988;52.446;13.280;2022-12-18T03:21:52;-5.70;99.90
26262;DHT22;13988;52.446;13.280;2022-12-18T03:24:19;-5.70;99.90
26262;DHT22;13988;52.446;13.280;2022-12-18T03:26:49;-5.60;99.90
26262;DHT22;13988;52.446;13.280;2022-12-18T03:29:21;-5.60;99.90
26262;DHT22;13988;52.446;13.280;2022-12-18T03:31:54;-5.50;99.90
26262;DHT22;13988;52.446;13.280;2022-12-18T03:34:29;-5.60;99.90
26262;DHT22;13988;52.446;13.280;2022-12-18T03:36:55;-5.60;99.90
26262;DHT22;13988;52.446;13.280;2022-12-18T03:39:21;-5.50;99.90
26262;DHT22;13988;52.446;13.280;2022-12-18T03:44:49;-5.80;99.90
26262;DHT22;13988;52.446;13.280;2022-12-18T03:47:27;-5.80;99.90
26262;DHT22;13988;52.446;13.280;2022-12-18T03:50:13;-5.80;99.90
26262;DHT22;13988;52.446;13.280;2022-12-18T03:55:33;-5.80;99.90
26262;DHT22;13988;52.446;13.280;2022-12-18T03:58:02;-5.80;99.90
26262;DHT22;13988;52.446;13.280;2022-12-18T04:00:29;-5.70;99.90
26262;DHT22;13988;52.446;13.280;2022-12-18T04:02:57;-5.80;99.90
26262;DHT22;13988;52.446;13.280;2022-12-18T04:05:25;-5.80;99.90
26262;DHT22;13988;52.446;13.280;2022-12-18T04:07:53;-5.70;99.90
26262;DHT22;13988;52.446;13.280;2022-12-18T04:10:20;-5.60;99.90
26262;DHT22;13988;52.446;13.280;2022-12-18T04:12:45;-5.60;99.90
26262;DHT22;13988;52.446;13.280;2022-12-18T04:15:12;-5.70;99.90
26262;DHT22;13988;52.446;13.280;2022-12-18T04:17:47;-5.90;99.90
26262;DHT22;13988;52.446;13.280;2022-12-18T04:20:13;-5.70;99.90
26262;DHT22;13988;52.446;13.280;2022-12-18T04:22:38;-5.60;99.90
26262;DHT22;13988;52.446;13.280;2022-12-18T04:25:04;-5.70;99.90
26262;DHT22;13988;52.446;13.280;2022-12-18T04:27:30;-5.90;99.90
26262;DHT22;13988;52.446;13.280;2022-12-18T04:29:56;-5.70;99.90
26262;DHT22;13988;52.446;13.280;2022-12-18T04:32:21;-5.90;99.90
26262;DHT22;13988;52.446;13.280;2022-12-18T04:34:47;-5.80;99.90
26262;DHT22;13988;52.446;13.280;2022-12-18T04:37:13;-5.70;99.90
26262;DHT22;13988;52.446;13.280;2022-12-18T04:39:38;-5.60;99.90
26262;DHT22;13988;52.446;13.280;2022-12-18T04:42:04;-5.70;99.90
26262;DHT22;13988;52.446;13.280;2022-12-18T04:44:30;-5.60;99.90
26262;DHT22;13988;52.446;13.280;2022-12-18T04:46:55;-5.60;99.90
26262;DHT22;13988;52.446;13.280;2022-12-18T04:49:21;-5.90;99.90
26262;DHT22;13988;52.446;13.280;2022-12-18T04:51:47;-6.00;99.90
26262;DHT22;13988;52.446;13.280;2022-12-18T04:54:12;-5.80;99.90
26262;DHT22;13988;52.446;13.280;2022-12-18T04:56:38;-5.70;99.90
26262;DHT22;13988;52.446;13.280;2022-12-18T04:59:04;-5.80;99.90
26262;DHT22;13988;52.446;13.280;2022-12-18T05:01:30;-5.80;99.90
26262;DHT22;13988;52.446;13.280;2022-12-18T05:03:55;-5.80;99.90
26262;DHT22;13988;52.446;13.280;2022-12-18T05:06:21;-5.80;99.90
26262;DHT22;13988;52.446;13.280;2022-12-18T05:08:46;-5.80;99.90
26262;DHT22;13988;52.446;13.280;2022-12-18T05:11:13;-5.80;99.90
26262;DHT22;13988;52.446;13.280;2022-12-18T05:13:41;-5.70;99.90
26262;DHT22;13988;52.446;13.280;2022-12-18T05:16:08;-5.70;99.90
26262;DHT22;13988;52.446;13.280;2022-12-18T05:18:34;-5.80;99.90
26262;DHT22;13988;52.446;13.280;2022-12-18T05:21:00;-5.70;99.90
26262;DHT22;13988;52.446;13.280;2022-12-18T05:23:26;-5.60;99.90
26262;DHT22;13988;52.446;13.280;2022-12-18T05:26:03;-5.60;99.90
26262;DHT22;13988;52.446;13.280;2022-12-18T05:28:30;-5.70;99.90
26262;DHT22;13988;52.446;13.280;2022-12-18T05:30:58;-5.70;99.90
26262;DHT22;13988;52.446;13.280;2022-12-18T05:33:26;-5.80;99.90
26262;DHT22;13988;52.446;13.280;2022-12-18T05:35:53;-5.80;99.90
26262;DHT22;13988;52.446;13.280;2022-12-18T05:38:20;-5.70;99.90
26262;DHT22;13988;52.446;13.280;2022-12-18T05:40:48;-5.80;99.90
26262;DHT22;13988;52.446;13.280;2022-12-18T05:43:13;-5.80;99.90
26262;DHT22;13988;52.446;13.280;2022-12-18T05:45:40;-5.70;99.90
26262;DHT22;13988;52.446;13.280;2022-12-18T05:48:06;-5.70;99.90
26262;DHT22;13988;52.446;13.280;2022-12-18T05:50:36;-5.70;99.90
26262;DHT22;13988;52.446;13.280;2022-12-18T05:53:03;-5.70;99.90
26262;DHT22;13988;52.446;13.280;2022-12-18T05:55:28;-5.70;99.90
26262;DHT22;13988;52.446;13.280;2022-12-18T05:57:54;-5.80;99.90
26262;DHT22;13988;52.446;13.280;2022-12-18T06:00:20;-5.70;99.90
26262;DHT22;13988;52.446;13.280;2022-12-18T06:02:49;-5.80;99.90
26262;DHT22;13988;52.446;13.280;2022-12-18T06:05:14;-6.00;99.90
26262;DHT22;13988;52.446;13.280;2022-12-18T06:07:40;-6.10;99.90
26262;DHT22;13988;52.446;13.280;2022-12-18T06:10:06;-6.00;99.90
26262;DHT22;13988;52.446;13.280;2022-12-18T06:12:32;-6.00;99.90
26262;DHT22;13988;52.446;13.280;2022-12-18T06:14:59;-6.00;99.90
26262;DHT22;13988;52.446;13.280;2022-12-18T06:17:32;-6.10;99.90
26262;DHT22;13988;52.446;13.280;2022-12-18T06:19:58;-6.20;99.90
26262;DHT22;13988;52.446;13.280;2022-12-18T06:22:24;-6.10;99.90
26262;DHT22;13988;52.446;13.280;2022-12-18T06:24:50;-6.00;99.90
26262;DHT22;13988;52.446;13.280;2022-12-18T06:27:16;-6.10;99.90
26262;DHT22;13988;52.446;13.280;2022-12-18T06:29:41;-6.00;99.90
26262;DHT22;13988;52.446;13.280;2022-12-18T06:32:07;-5.90;99.90
26262;DHT22;13988;52.446;13.280;2022-12-18T06:34:33;-5.90;99.90
26262;DHT22;13988;52.446;13.280;2022-12-18T06:36:59;-6.00;99.90
26262;DHT22;13988;52.446;13.280;2022-12-18T06:39:27;-5.90;99.90
26262;DHT22;13988;52.446;13.280;2022-12-18T06:41:53;-5.80;99.90
26262;DHT22;13988;52.446;13.280;2022-12-18T06:44:19;-5.90;99.90
26262;DHT22;13988;52.446;13.280;2022-12-18T06:46:44;-5.90;99.90
26262;DHT22;13988;52.446;13.280;2022-12-18T06:49:10;-5.90;99.90
26262;DHT22;13988;52.446;13.280;2022-12-18T06:51:36;-5.90;99.90
26262;DHT22;13988;52.446;13.280;2022-12-18T06:54:02;-5.80;99.90
26262;DHT22;13988;52.446;13.280;2022-12-18T06:56:28;-5.80;99.90
26262;DHT22;13988;52.446;13.280;2022-12-18T06:58:54;-5.70;99.90
26262;DHT22;13988;52.446;13.280;2022-12-18T07:01:20;-5.70;99.90
26262;DHT22;13988;52.446;13.280;2022-12-18T07:03:46;-5.90;99.90
26262;DHT22;13988;52.446;13.280;2022-12-18T07:06:19;-5.70;99.90
26262;DHT22;13988;52.446;13.280;2022-12-18T07:08:46;-5.70;99.90
26262;DHT22;13988;52.446;13.280;2022-12-18T07:11:12;-5.80;99.90
26262;DHT22;13988;52.446;13.280;2022-12-18T07:13:38;-5.70;99.90
26262;DHT22;13988;52.446;13.280;2022-12-18T07:16:24;-5.70;99.90
26262;DHT22;13988;52.446;13.280;2022-12-18T07:18:50;-5.70;99.90
26262;DHT22;13988;52.446;13.280;2022-12-18T07:21:17;-5.60;99.90
26262;DHT22;13988;52.446;13.280;2022-12-18T07:23:44;-5.70;99.90
26262;DHT22;13988;52.446;13.280;2022-12-18T07:26:12;-5.70;99.90
26262;DHT22;13988;52.446;13.280;2022-12-18T07:28:40;-5.60;99.90
26262;DHT22;13988;52.446;13.280;2022-12-18T07:31:14;-5.60;99.90
26262;DHT22;13988;52.446;13.280;2022-12-18T07:33:40;-5.60;99.90
26262;DHT22;13988;52.446;13.280;2022-12-18T07:36:07;-5.60;99.90
26262;DHT22;13988;52.446;13.280;2022-12-18T07:38:34;-5.50;99.90
26262;DHT22;13988;52.446;13.280;2022-12-18T07:41:04;-5.50;99.90
26262;DHT22;13988;52.446;13.280;2022-12-18T07:43:30;-5.40;99.90
26262;DHT22;13988;52.446;13.280;2022-12-18T07:45:56;-5.40;99.90
26262;DHT22;13988;52.446;13.280;2022-12-18T07:48:22;-5.40;99.90
26262;DHT22;13988;52.446;13.280;2022-12-18T07:50:48;-5.30;99.90
26262;DHT22;13988;52.446;13.280;2022-12-18T07:53:13;-5.30;99.90
26262;DHT22;13988;52.446;13.280;2022-12-18T07:55:40;-5.30;99.90
26262;DHT22;13988;52.446;13.280;2022-12-18T07:58:06;-5.20;99.90
26262;DHT22;13988;52.446;13.280;2022-12-18T08:00:32;-5.20;99.90
26262;DHT22;13988;52.446;13.280;2022-12-18T08:02:58;-5.40;99.90
26262;DHT22;13988;52.446;13.280;2022-12-18T08:05:24;-5.40;99.90
26262;DHT22;13988;52.446;13.280;2022-12-18T08:07:49;-5.50;99.90
26262;DHT22;13988;52.446;13.280;2022-12-18T08:10:15;-5.60;99.90
26262;DHT22;13988;52.446;13.280;2022-12-18T08:12:41;-5.70;99.90
26262;DHT22;13988;52.446;13.280;2022-12-18T08:15:07;-5.50;99.90
26262;DHT22;13988;52.446;13.280;2022-12-18T08:17:33;-5.40;99.90
26262;DHT22;13988;52.446;13.280;2022-12-18T08:19:59;-5.40;99.90
26262;DHT22;13988;52.446;13.280;2022-12-18T08:22:24;-5.40;99.90
26262;DHT22;13988;52.446;13.280;2022-12-18T08:24:50;-5.50;99.90
26262;DHT22;13988;52.446;13.280;2022-12-18T08:27:16;-5.60;99.90
26262;DHT22;13988;52.446;13.280;2022-12-18T08:29:41;-5.30;99.90
26262;DHT22;13988;52.446;13.280;2022-12-18T08:32:07;-5.30;99.90
26262;DHT22;13988;52.446;13.280;2022-12-18T08:34:33;-5.30;99.90
26262;DHT22;13988;52.446;13.280;2022-12-18T08:36:58;-5.30;99.90
26262;DHT22;13988;52.446;13.280;2022-12-18T08:39:24;-5.30;99.90
26262;DHT22;13988;52.446;13.280;2022-12-18T08:41:49;-5.20;99.90
26262;DHT22;13988;52.446;13.280;2022-12-18T08:44:41;-5.20;99.90
26262;DHT22;13988;52.446;13.280;2022-12-18T08:47:07;-5.20;99.90
26262;DHT22;13988;52.446;13.280;2022-12-18T08:49:33;-5.10;99.90
26262;DHT22;13988;52.446;13.280;2022-12-18T08:51:59;-5.30;99.90
26262;DHT22;13988;52.446;13.280;2022-12-18T08:54:25;-5.20;99.90
26262;DHT22;13988;52.446;13.280;2022-12-18T08:56:51;-5.20;99.90
26262;DHT22;13988;52.446;13.280;2022-12-18T08:59:18;-5.20;99.90
26262;DHT22;13988;52.446;13.280;2022-12-18T09:01:44;-5.10;99.90
26262;DHT22;13988;52.446;13.280;2022-12-18T09:04:10;-5.10;99.90
26262;DHT22;13988;52.446;13.280;2022-12-18T09:06:36;-5.30;99.90
26262;DHT22;13988;52.446;13.280;2022-12-18T09:09:03;-5.20;99.90
26262;DHT22;13988;52.446;13.280;2022-12-18T09:11:29;-5.30;99.90
26262;DHT22;13988;52.446;13.280;2022-12-18T09:13:56;-5.20;99.90
26262;DHT22;13988;52.446;13.280;2022-12-18T09:16:23;-5.10;99.90
26262;DHT22;13988;52.446;13.280;2022-12-18T09:18:49;-5.10;99.90
26262;DHT22;13988;52.446;13.280;2022-12-18T09:21:17;-5.00;99.90
26262;DHT22;13988;52.446;13.280;2022-12-18T09:23:44;-4.90;99.90
26262;DHT22;13988;52.446;13.280;2022-12-18T09:26:10;-4.80;99.90
26262;DHT22;13988;52.446;13.280;2022-12-18T09:28:35;-4.90;99.90
26262;DHT22;13988;52.446;13.280;2022-12-18T09:31:08;-5.00;99.90
26262;DHT22;13988;52.446;13.280;2022-12-18T09:33:37;-5.00;99.90
26262;DHT22;13988;52.446;13.280;2022-12-18T09:36:05;-5.00;99.90
26262;DHT22;13988;52.446;13.280;2022-12-18T09:38:32;-5.00;99.90
26262;DHT22;13988;52.446;13.280;2022-12-18T09:41:03;-4.90;99.90
26262;DHT22;13988;52.446;13.280;2022-12-18T09:43:45;-4.70;99.90
26262;DHT22;13988;52.446;13.280;2022-12-18T09:46:17;-4.70;99.90
26262;DHT22;13988;52.446;13.280;2022-12-18T09:48:47;-4.70;99.90
26262;DHT22;13988;52.446;13.280;2022-12-18T09:51:23;-4.70;99.90
26262;DHT22;13988;52.446;13.280;2022-12-18T09:53:59;-4.70;99.90
26262;DHT22;13988;52.446;13.280;2022-12-18T09:56:28;-4.50;99.90
26262;DHT22;13988;52.446;13.280;2022-12-18T09:59:01;-4.50;99.90
26262;DHT22;13988;52.446;13.280;2022-12-18T10:01:28;-4.50;99.90
26262;DHT22;13988;52.446;13.280;2022-12-18T10:03:54;-4.40;99.90
26262;DHT22;13988;52.446;13.280;2022-12-18T10:06:32;-4.40;99.90
26262;DHT22;13988;52.446;13.280;2022-12-18T10:09:08;-4.60;99.90
26262;DHT22;13988;52.446;13.280;2022-12-18T10:14:27;-4.40;99.90
26262;DHT22;13988;52.446;13.280;2022-12-18T10:25:14;-4.30;99.90
26262;DHT22;13988;52.446;13.280;2022-12-18T10:27:40;-4.40;99.90
26262;DHT22;13988;52.446;13.280;2022-12-18T10:30:15;-4.40;99.90
26262;DHT22;13988;52.446;13.280;2022-12-18T10:32:41;-4.30;99.90
26262;DHT22;13988;52.446;13.280;2022-12-18T10:35:20;-4.30;99.90
26262;DHT22;13988;52.446;13.280;2022-12-18T10:43:39;-4.50;99.90
26262;DHT22;13988;52.446;13.280;2022-12-18T10:51:29;-4.20;99.90
26262;DHT22;13988;52.446;13.280;2022-12-18T10:54:18;-4.30;99.90
26262;DHT22;13988;52.446;13.280;2022-12-18T10:56:45;-4.10;99.90
26262;DHT22;13988;52.446;13.280;2022-12-18T10:59:13;-4.10;99.90
26262;DHT22;13988;52.446;13.280;2022-12-18T11:04:22;-4.00;99.90
26262;DHT22;13988;52.446;13.280;2022-12-18T11:06:57;-4.00;99.90
26262;DHT22;13988;52.446;13.280;2022-12-18T11:09:45;-3.90;99.90
26262;DHT22;13988;52.446;13.280;2022-12-18T11:14:48;-3.80;99.90
26262;DHT22;13988;52.446;13.280;2022-12-18T11:17:35;-3.70;99.90
26262;DHT22;13988;52.446;13.280;2022-12-18T11:20:07;-3.70;99.90
26262;DHT22;13988;52.446;13.280;2022-12-18T11:22:54;-3.70;99.90
26262;DHT22;13988;52.446;13.280;2022-12-18T11:25:21;-3.70;99.90
26262;DHT22;13988;52.446;13.280;2022-12-18T11:27:56;-3.60;99.90
26262;DHT22;13988;52.446;13.280;2022-12-18T11:30:32;-3.70;99.90
26262;DHT22;13988;52.446;13.280;2022-12-18T11:32:59;-3.60;99.90
26262;DHT22;13988;52.446;13.280;2022-12-18T11:35:57;-3.60;99.90
26262;DHT22;13988;52.446;13.280;2022-12-18T11:38:33;-3.50;99.90
26262;DHT22;13988;52.446;13.280;2022-12-18T11:43:57;-3.50;99.90
26262;DHT22;13988;52.446;13.280;2022-12-18T11:46:33;-3.50;99.90
26262;DHT22;13988;52.446;13.280;2022-12-18T11:54:16;-3.60;99.90
26262;DHT22;13988;52.446;13.280;2022-12-18T11:56:56;-3.60;99.90
26262;DHT22;13988;52.446;13.280;2022-12-18T11:59:38;-3.40;99.90
26262;DHT22;13988;52.446;13.280;2022-12-18T12:13:39;-3.50;99.90
26262;DHT22;13988;52.446;13.280;2022-12-18T12:16:12;-3.40;99.90
26262;DHT22;13988;52.446;13.280;2022-12-18T12:21:18;-3.40;99.90
26262;DHT22;13988;52.446;13.280;2022-12-18T12:32:33;-3.40;99.90
26262;DHT22;13988;52.446;13.280;2022-12-18T12:35:36;-3.40;99.90
26262;DHT22;13988;52.446;13.280;2022-12-18T12:38:12;-3.40;99.90
26262;DHT22;13988;52.446;13.280;2022-12-18T12:40:54;-3.40;99.90
26262;DHT22;13988;52.446;13.280;2022-12-18T12:46:32;-3.40;99.90
26262;DHT22;13988;52.446;13.280;2022-12-18T12:48:59;-3.50;99.90
26262;DHT22;13988;52.446;13.280;2022-12-18T12:51:37;-3.40;99.90
26262;DHT22;13988;52.446;13.280;2022-12-18T12:54:06;-3.40;99.90
26262;DHT22;13988;52.446;13.280;2022-12-18T12:57:01;-3.30;99.90
26262;DHT22;13988;52.446;13.280;2022-12-18T13:02:16;-3.40;99.90
26262;DHT22;13988;52.446;13.280;2022-12-18T13:08:03;-3.40;99.90
26262;DHT22;13988;52.446;13.280;2022-12-18T13:10:37;-3.40;99.90
26262;DHT22;13988;52.446;13.280;2022-12-18T13:18:17;-3.50;99.90
26262;DHT22;13988;52.446;13.280;2022-12-18T13:23:36;-3.40;99.90
26262;DHT22;13988;52.446;13.280;2022-12-18T13:36:46;-3.40;99.90
26262;DHT22;13988;52.446;13.280;2022-12-18T13:41:45;-3.40;99.90
26262;DHT22;13988;52.446;13.280;2022-12-18T13:44:22;-3.50;99.90
26262;DHT22;13988;52.446;13.280;2022-12-18T13:46:50;-3.50;99.90
26262;DHT22;13988;52.446;13.280;2022-12-18T13:51:50;-3.50;99.90
26262;DHT22;13988;52.446;13.280;2022-12-18T13:54:36;-3.60;99.90
26262;DHT22;13988;52.446;13.280;2022-12-18T13:57:03;-3.50;99.90
26262;DHT22;13988;52.446;13.280;2022-12-18T13:59:39;-3.50;99.90
26262;DHT22;13988;52.446;13.280;2022-12-18T14:02:14;-3.50;99.90
26262;DHT22;13988;52.446;13.280;2022-12-18T14:04:40;-3.60;99.90
26262;DHT22;13988;52.446;13.280;2022-12-18T14:07:10;-3.60;99.90
26262;DHT22;13988;52.446;13.280;2022-12-18T14:09:45;-3.60;99.90
26262;DHT22;13988;52.446;13.280;2022-12-18T14:12:17;-3.80;99.90
26262;DHT22;13988;52.446;13.280;2022-12-18T14:15:03;-3.80;99.90
26262;DHT22;13988;52.446;13.280;2022-12-18T14:17:31;-3.80;99.90
26262;DHT22;13988;52.446;13.280;2022-12-18T14:19:57;-3.70;99.90
26262;DHT22;13988;52.446;13.280;2022-12-18T14:22:25;-3.70;99.90
26262;DHT22;13988;52.446;13.280;2022-12-18T14:25:18;-3.80;99.90
26262;DHT22;13988;52.446;13.280;2022-12-18T14:27:47;-3.70;99.90
26262;DHT22;13988;52.446;13.280;2022-12-18T14:35:35;-3.80;99.90
26262;DHT22;13988;52.446;13.280;2022-12-18T14:38:30;-3.80;99.90
26262;DHT22;13988;52.446;13.280;2022-12-18T14:41:02;-3.80;99.90
26262;DHT22;13988;52.446;13.280;2022-12-18T14:43:31;-3.70;99.90
26262;DHT22;13988;52.446;13.280;2022-12-18T14:45:57;-3.70;99.90
26262;DHT22;13988;52.446;13.280;2022-12-18T14:48:41;-3.70;99.90
26262;DHT22;13988;52.446;13.280;2022-12-18T14:53:42;-3.80;99.90
26262;DHT22;13988;52.446;13.280;2022-12-18T14:56:21;-3.80;99.90
26262;DHT22;13988;52.446;13.280;2022-12-18T14:58:49;-3.80;99.90
26262;DHT22;13988;52.446;13.280;2022-12-18T15:01:24;-3.80;99.90
26262;DHT22;13988;52.446;13.280;2022-12-18T15:03:52;-3.70;99.90
26262;DHT22;13988;52.446;13.280;2022-12-18T15:06:38;-3.80;99.90
26262;DHT22;13988;52.446;13.280;2022-12-18T15:09:25;-3.70;99.90
26262;DHT22;13988;52.446;13.280;2022-12-18T15:12:00;-3.80;99.90
26262;DHT22;13988;52.446;13.280;2022-12-18T15:14:40;-3.70;99.90
26262;DHT22;13988;52.446;13.280;2022-12-18T15:17:21;-3.80;99.90
26262;DHT22;13988;52.446;13.280;2022-12-18T15:19:48;-3.80;99.90
26262;DHT22;13988;52.446;13.280;2022-12-18T15:22:20;-3.70;99.90
26262;DHT22;13988;52.446;13.280;2022-12-18T15:24:46;-3.70;99.90
26262;DHT22;13988;52.446;13.280;2022-12-18T15:27:29;-3.70;99.90
26262;DHT22;13988;52.446;13.280;2022-12-18T15:32:39;-3.80;99.90
26262;DHT22;13988;52.446;13.280;2022-12-18T15:37:33;-3.90;99.90
26262;DHT22;13988;52.446;13.280;2022-12-18T15:39:59;-3.90;99.90
26262;DHT22;13988;52.446;13.280;2022-12-18T15:42:24;-3.90;99.90
26262;DHT22;13988;52.446;13.280;2022-12-18T15:45:13;-4.10;99.90
26262;DHT22;13988;52.446;13.280;2022-12-18T15:47:39;-4.00;99.90
26262;DHT22;13988;52.446;13.280;2022-12-18T15:50:04;-4.10;99.90
26262;DHT22;13988;52.446;13.280;2022-12-18T15:52:39;-4.20;99.90
26262;DHT22;13988;52.446;13.280;2022-12-18T15:55:13;-4.20;99.90
26262;DHT22;13988;52.446;13.280;2022-12-18T15:57:57;-4.20;99.90
26262;DHT22;13988;52.446;13.280;2022-12-18T16:00:23;-4.20;99.90
26262;DHT22;13988;52.446;13.280;2022-12-18T16:02:48;-4.20;99.90
26262;DHT22;13988;52.446;13.280;2022-12-18T16:05:15;-4.20;99.90
26262;DHT22;13988;52.446;13.280;2022-12-18T16:07:42;-4.10;99.90
26262;DHT22;13988;52.446;13.280;2022-12-18T16:10:08;-4.10;99.90
26262;DHT22;13988;52.446;13.280;2022-12-18T16:12:34;-4.10;99.90
26262;DHT22;13988;52.446;13.280;2022-12-18T16:15:00;-4.00;99.90
26262;DHT22;13988;52.446;13.280;2022-12-18T16:17:26;-4.00;99.90
26262;DHT22;13988;52.446;13.280;2022-12-18T16:19:52;-4.00;99.90
26262;DHT22;13988;52.446;13.280;2022-12-18T16:24:48;-4.00;99.90
26262;DHT22;13988;52.446;13.280;2022-12-18T16:27:14;-3.90;99.90
26262;DHT22;13988;52.446;13.280;2022-12-18T16:29:40;-4.00;99.90
26262;DHT22;13988;52.446;13.280;2022-12-18T16:32:05;-4.00;99.90
26262;DHT22;13988;52.446;13.280;2022-12-18T16:34:33;-4.00;99.90
26262;DHT22;13988;52.446;13.280;2022-12-18T16:37:07;-4.00;99.90
26262;DHT22;13988;52.446;13.280;2022-12-18T16:39:33;-4.00;99.90
26262;DHT22;13988;52.446;13.280;2022-12-18T16:42:01;-4.10;99.90
26262;DHT22;13988;52.446;13.280;2022-12-18T16:44:26;-4.00;99.90
26262;DHT22;13988;52.446;13.280;2022-12-18T16:46:52;-4.10;99.90
26262;DHT22;13988;52.446;13.280;2022-12-18T16:49:18;-4.00;99.90
26262;DHT22;13988;52.446;13.280;2022-12-18T16:51:47;-4.10;99.90
26262;DHT22;13988;52.446;13.280;2022-12-18T16:54:13;-4.10;99.90
26262;DHT22;13988;52.446;13.280;2022-12-18T16:56:40;-4.10;99.90
26262;DHT22;13988;52.446;13.280;2022-12-18T16:59:10;-4.20;99.90
26262;DHT22;13988;52.446;13.280;2022-12-18T17:01:36;-4.20;99.90
26262;DHT22;13988;52.446;13.280;2022-12-18T17:04:04;-4.20;99.90
26262;DHT22;13988;52.446;13.280;2022-12-18T17:06:32;-4.20;99.90
26262;DHT22;13988;52.446;13.280;2022-12-18T17:09:00;-4.30;99.90
26262;DHT22;13988;52.446;13.280;2022-12-18T17:11:29;-4.30;99.90
26262;DHT22;13988;52.446;13.280;2022-12-18T17:13:55;-4.30;99.90
26262;DHT22;13988;52.446;13.280;2022-12-18T17:16:21;-4.40;99.90
26262;DHT22;13988;52.446;13.280;2022-12-18T17:18:48;-4.40;99.90
26262;DHT22;13988;52.446;13.280;2022-12-18T17:21:14;-4.50;99.90
26262;DHT22;13988;52.446;13.280;2022-12-18T17:23:41;-4.50;99.90
26262;DHT22;13988;52.446;13.280;2022-12-18T17:26:08;-4.50;99.90
26262;DHT22;13988;52.446;13.280;2022-12-18T17:28:35;-4.50;99.90
26262;DHT22;13988;52.446;13.280;2022-12-18T17:31:02;-4.60;99.90
26262;DHT22;13988;52.446;13.280;2022-12-18T17:33:34;-4.50;99.90
26262;DHT22;13988;52.446;13.280;2022-12-18T17:36:00;-4.50;99.90
26262;DHT22;13988;52.446;13.280;2022-12-18T17:38:25;-4.50;99.90
26262;DHT22;13988;52.446;13.280;2022-12-18T17:40:52;-4.60;99.90
26262;DHT22;13988;52.446;13.280;2022-12-18T17:43:17;-4.60;99.90
26262;DHT22;13988;52.446;13.280;2022-12-18T17:45:43;-4.60;99.90
26262;DHT22;13988;52.446;13.280;2022-12-18T17:48:09;-4.60;99.90
26262;DHT22;13988;52.446;13.280;2022-12-18T17:50:35;-4.60;99.90